createdAt,value
2022-09-15T00:01:50.870Z,99579.41
2022-09-15T00:04:17.254Z,99574.47
2022-09-15T00:06:43.557Z,99578.13
2022-09-15T00:09:09.891Z,99577.47
2022-09-15T00:11:37.430Z,99580.19
2022-09-15T00:14:06.075Z,99573.47
2022-09-15T00:16:33.006Z,99577.78
2022-09-15T00:19:00.686Z,99575.25
2022-09-15T00:21:31.834Z,99575.56
2022-09-15T00:24:00.007Z,99582.63
2022-09-15T00:26:29.027Z,99574.63
2022-09-15T00:28:56.890Z,99572.59
2022-09-15T00:31:25.311Z,99575.31
2022-09-15T00:33:53.609Z,99580.41
2022-09-15T00:36:21.349Z,99576.28
2022-09-15T00:38:47.871Z,99579.19
2022-09-15T00:41:16.783Z,99575.97
2022-09-15T00:44:01.336Z,99575.34
2022-09-15T00:46:36.927Z,99578.03
2022-09-15T00:49:12.077Z,99570.84
2022-09-15T00:51:52.267Z,99570.06
2022-09-15T00:54:41.515Z,99572.91
2022-09-15T00:57:16.668Z,99570.22
2022-09-15T00:59:44.385Z,99568.97
2022-09-15T01:02:20.884Z,99577.72
2022-09-15T01:04:47.868Z,99574.38
2022-09-15T01:07:18.183Z,99575.19
2022-09-15T01:10:26.009Z,99575.47
2022-09-15T01:12:56.501Z,99560.97
2022-09-15T01:15:29.373Z,99562.69
2022-09-15T01:18:11.707Z,99567.66
2022-09-15T01:21:06.238Z,99573.91
2022-09-15T01:24:01.659Z,99576.28
2022-09-15T01:27:18.434Z,99578.53
2022-09-15T01:30:09.402Z,99585.06
2022-09-15T01:32:57.235Z,99588.56
2022-09-15T01:35:31.602Z,99583.97
2022-09-15T01:38:08.298Z,99581.72
2022-09-15T01:40:44.856Z,99583.16
2022-09-15T01:43:11.323Z,99578.34
2022-09-15T01:45:42.128Z,99581.56
2022-09-15T01:48:08.937Z,99579.00
2022-09-15T01:50:46.354Z,99577.88
2022-09-15T01:53:17.655Z,99580.59
2022-09-15T01:55:53.345Z,99578.19
2022-09-15T01:58:20.305Z,99587.44
2022-09-15T02:00:53.446Z,99580.91
2022-09-15T02:03:30.946Z,99587.47
2022-09-15T02:06:02.228Z,99578.03
2022-09-15T02:08:41.023Z,99582.19
2022-09-15T02:11:17.533Z,99580.28
2022-09-15T02:13:59.420Z,99577.91
2022-09-15T02:16:29.835Z,99582.03
2022-09-15T02:19:30.554Z,99583.63
2022-09-15T02:22:06.114Z,99586.19
2022-09-15T02:24:38.391Z,99586.19
2022-09-15T02:27:10.122Z,99586.34
2022-09-15T02:29:38.516Z,99579.16
2022-09-15T02:32:07.632Z,99573.09
2022-09-15T02:34:39.397Z,99570.84
2022-09-15T02:37:07.355Z,99563.28
2022-09-15T02:39:37.491Z,99565.34
2022-09-15T02:42:04.141Z,99565.69
2022-09-15T02:44:30.881Z,99567.28
2022-09-15T02:46:58.656Z,99557.53
2022-09-15T02:49:24.986Z,99561.81
2022-09-15T02:51:51.296Z,99561.00
2022-09-15T02:54:17.619Z,99562.13
2022-09-15T02:56:43.914Z,99558.28
2022-09-15T02:59:10.270Z,99560.88
2022-09-15T03:01:36.584Z,99562.28
2022-09-15T03:04:03.669Z,99559.41
2022-09-15T03:06:30.268Z,99550.81
2022-09-15T03:08:58.329Z,99556.41
2022-09-15T03:11:26.867Z,99560.59
2022-09-15T03:13:55.206Z,99567.66
2022-09-15T03:16:21.796Z,99564.13
2022-09-15T03:18:48.175Z,99568.78
2022-09-15T03:21:16.446Z,99563.81
2022-09-15T03:23:42.876Z,99563.81
2022-09-15T03:26:09.623Z,99575.16
2022-09-15T03:28:37.194Z,99576.25
2022-09-15T03:31:03.953Z,99569.53
2022-09-15T03:33:30.475Z,99570.63
2022-09-15T03:35:57.181Z,99566.47
2022-09-15T03:38:23.690Z,99571.75
2022-09-15T03:41:01.286Z,99579.56
2022-09-15T03:43:29.569Z,99581.00
2022-09-15T03:45:56.309Z,99584.69
2022-09-15T03:48:24.327Z,99584.19
2022-09-15T03:50:51.538Z,99586.59
2022-09-15T03:53:18.263Z,99590.91
2022-09-15T03:55:45.568Z,99583.38
2022-09-15T03:58:13.132Z,99587.38
2022-09-15T04:00:40.404Z,99585.13
2022-09-15T04:03:07.608Z,99587.50
2022-09-15T04:05:34.839Z,99581.41
2022-09-15T04:08:01.288Z,99576.59
2022-09-15T04:10:27.635Z,99571.66
2022-09-15T04:12:54.011Z,99568.59
2022-09-15T04:15:20.856Z,99570.50
2022-09-15T04:17:47.792Z,99572.28
2022-09-15T04:20:14.786Z,99567.50
2022-09-15T04:22:41.126Z,99577.91
2022-09-15T04:25:07.981Z,99572.28
2022-09-15T04:27:34.269Z,99579.97
2022-09-15T04:30:00.562Z,99581.56
2022-09-15T04:32:29.152Z,99583.63
2022-09-15T04:34:55.780Z,99579.31
2022-09-15T04:37:22.689Z,99585.38
2022-09-15T04:39:49.612Z,99588.44
2022-09-15T04:42:16.038Z,99588.91
2022-09-15T04:44:42.382Z,99587.47
2022-09-15T04:47:08.706Z,99580.63
2022-09-15T04:49:35.009Z,99588.78
2022-09-15T04:52:01.481Z,99580.16
2022-09-15T04:54:27.783Z,99576.94
2022-09-15T04:56:54.086Z,99584.09
2022-09-15T04:59:20.379Z,99586.50
2022-09-15T05:01:46.801Z,99587.97
2022-09-15T05:04:13.165Z,99584.06
2022-09-15T05:06:39.467Z,99585.72
2022-09-15T05:09:10.236Z,99591.56
2022-09-15T05:11:37.733Z,99594.44
2022-09-15T05:14:04.080Z,99583.75
2022-09-15T05:16:30.848Z,99583.59
2022-09-15T05:18:59.843Z,99586.50
2022-09-15T05:21:26.903Z,99590.50
2022-09-15T05:23:54.083Z,99590.66
2022-09-15T05:26:23.775Z,99588.25
2022-09-15T05:28:50.109Z,99598.47
2022-09-15T05:31:19.577Z,99593.19
2022-09-15T05:33:47.545Z,99583.88
2022-09-15T05:36:14.755Z,99586.09
2022-09-15T05:38:41.421Z,99589.31
2022-09-15T05:41:10.951Z,99589.13
2022-09-15T05:43:38.294Z,99604.97
2022-09-15T05:46:05.731Z,99604.22
2022-09-15T05:48:32.376Z,99596.72
2022-09-15T05:50:59.158Z,99596.88
2022-09-15T05:53:26.055Z,99597.03
2022-09-15T05:55:59.938Z,99596.19
2022-09-15T05:58:26.792Z,99600.97
2022-09-15T06:00:53.624Z,99599.44
2022-09-15T06:03:21.311Z,99595.88
2022-09-15T06:05:47.648Z,99598.63
2022-09-15T06:08:13.981Z,99594.44
2022-09-15T06:10:40.479Z,99599.38
2022-09-15T06:13:07.120Z,99606.59
2022-09-15T06:15:33.643Z,99610.47
2022-09-15T06:17:59.959Z,99615.56
2022-09-15T06:20:26.393Z,99608.78
2022-09-15T06:22:53.124Z,99612.91
2022-09-15T06:25:19.427Z,99614.97
2022-09-15T06:27:49.315Z,99624.31
2022-09-15T06:30:15.603Z,99628.09
2022-09-15T06:32:45.157Z,99631.78
2022-09-15T06:35:14.351Z,99616.56
2022-09-15T06:37:40.652Z,99620.19
2022-09-15T06:40:07.690Z,99612.72
2022-09-15T06:42:34.049Z,99618.53
2022-09-15T06:45:00.356Z,99622.38
2022-09-15T06:47:26.669Z,99629.97
2022-09-15T06:49:52.968Z,99625.00
2022-09-15T06:52:19.344Z,99629.53
2022-09-15T06:54:45.656Z,99625.94
2022-09-15T06:57:11.946Z,99626.47
2022-09-15T06:59:38.234Z,99627.50
2022-09-15T07:02:05.435Z,99630.47
2022-09-15T07:04:34.137Z,99623.13
2022-09-15T07:07:00.436Z,99631.19
2022-09-15T07:09:26.768Z,99638.25
2022-09-15T07:11:53.084Z,99637.72
2022-09-15T07:14:19.390Z,99644.66
2022-09-15T07:16:45.695Z,99644.31
2022-09-15T07:19:12.128Z,99647.25
2022-09-15T07:21:38.414Z,99640.06
2022-09-15T07:24:07.279Z,99642.25
2022-09-15T07:26:33.933Z,99640.06
2022-09-15T07:29:02.583Z,99633.34
2022-09-15T07:31:31.709Z,99642.53
2022-09-15T07:34:01.683Z,99645.22
2022-09-15T07:36:29.315Z,99647.81
2022-09-15T07:38:55.687Z,99638.91
2022-09-15T07:41:30.290Z,99643.59
2022-09-15T07:43:58.321Z,99650.16
2022-09-15T07:46:26.611Z,99647.13
2022-09-15T07:48:54.483Z,99652.81
2022-09-15T07:51:20.768Z,99658.16
2022-09-15T07:53:47.952Z,99660.00
2022-09-15T07:56:15.235Z,99659.84
2022-09-15T07:58:41.541Z,99666.94
2022-09-15T08:01:10.476Z,99657.84
2022-09-15T08:03:44.797Z,99668.63
2022-09-15T08:06:11.171Z,99666.34
2022-09-15T08:08:38.713Z,99676.25
2022-09-15T08:11:07.394Z,99670.63
2022-09-15T08:13:33.756Z,99678.28
2022-09-15T08:16:11.764Z,99682.06
2022-09-15T08:18:39.373Z,99673.84
2022-09-15T08:21:07.257Z,99678.69
2022-09-15T08:23:33.751Z,99680.50
2022-09-15T08:26:00.070Z,99684.03
2022-09-15T08:28:26.460Z,99687.41
2022-09-15T08:31:09.298Z,99692.59
2022-09-15T08:33:35.734Z,99693.09
2022-09-15T08:36:08.649Z,99686.22
2022-09-15T08:38:34.926Z,99684.25
2022-09-15T08:41:08.172Z,99687.72
2022-09-15T08:44:03.955Z,99685.09
2022-09-15T08:46:40.794Z,99682.28
2022-09-15T08:49:30.546Z,99696.63
2022-09-15T08:52:07.842Z,99697.09
2022-09-15T08:54:34.184Z,99700.09
2022-09-15T08:57:01.378Z,99695.72
2022-09-15T08:59:33.776Z,99690.00
2022-09-15T09:02:12.243Z,99695.03
2022-09-15T09:04:47.551Z,99705.31
2022-09-15T09:08:03.439Z,99704.72
2022-09-15T09:10:45.716Z,99691.00
2022-09-15T09:13:26.940Z,99690.72
2022-09-15T09:16:30.076Z,99694.69
2022-09-15T09:19:24.075Z,99691.50
2022-09-15T09:22:03.911Z,99697.19
2022-09-15T09:24:42.905Z,99680.63
2022-09-15T09:27:22.923Z,99683.38
2022-09-15T09:29:56.080Z,99686.38
2022-09-15T09:32:24.905Z,99687.97
2022-09-15T09:34:59.176Z,99686.56
2022-09-15T09:37:25.544Z,99676.97
2022-09-15T09:39:51.902Z,99682.22
2022-09-15T09:42:18.936Z,99680.88
2022-09-15T09:44:46.786Z,99688.91
2022-09-15T09:47:13.132Z,99689.19
2022-09-15T09:49:45.980Z,99682.34
2022-09-15T09:52:12.318Z,99682.00
2022-09-15T09:54:38.654Z,99685.31
2022-09-15T09:57:13.880Z,99670.09
2022-09-15T09:59:47.478Z,99680.41
2022-09-15T10:02:17.183Z,99677.00
2022-09-15T10:04:46.197Z,99677.97
2022-09-15T10:07:15.437Z,99672.53
2022-09-15T10:09:49.814Z,99678.88
2022-09-15T10:12:29.140Z,99676.25
2022-09-15T10:14:59.193Z,99666.84
2022-09-15T10:17:45.965Z,99664.28
2022-09-15T10:20:21.512Z,99662.88
2022-09-15T10:22:48.003Z,99652.94
2022-09-15T10:25:20.157Z,99662.94
2022-09-15T10:28:09.271Z,99665.56
2022-09-15T10:30:39.377Z,99666.00
2022-09-15T10:33:29.282Z,99661.81
2022-09-15T10:36:02.247Z,99665.16
2022-09-15T10:38:38.881Z,99656.84
2022-09-15T10:41:25.647Z,99658.47
2022-09-15T10:44:15.578Z,99663.09
2022-09-15T10:46:58.409Z,99650.00
2022-09-15T10:49:36.779Z,99658.38
2022-09-15T10:52:29.986Z,99654.22
2022-09-15T10:55:51.062Z,99657.34
2022-09-15T10:58:31.999Z,99656.88
2022-09-15T11:01:28.212Z,99659.25
2022-09-15T11:04:32.043Z,99657.88
2022-09-15T11:07:29.100Z,99653.44
2022-09-15T11:10:30.661Z,99652.44
2022-09-15T11:13:20.955Z,99647.66
2022-09-15T11:16:13.473Z,99654.41
2022-09-15T11:18:55.125Z,99649.97
2022-09-15T11:21:27.229Z,99654.78
2022-09-15T11:24:28.954Z,99649.94
2022-09-15T11:27:11.255Z,99654.69
2022-09-15T11:29:58.284Z,99659.44
2022-09-15T11:32:30.726Z,99651.28
2022-09-15T11:35:29.577Z,99662.50
2022-09-15T11:38:04.035Z,99662.56
2022-09-15T11:40:37.514Z,99670.75
2022-09-15T11:43:16.295Z,99656.81
2022-09-15T11:45:50.113Z,99665.69
2022-09-15T11:48:33.402Z,99668.91
2022-09-15T11:51:02.587Z,99673.91
2022-09-15T11:53:37.781Z,99669.88
2022-09-15T11:56:13.044Z,99672.66
2022-09-15T11:59:02.358Z,99667.56
2022-09-15T12:01:34.446Z,99664.69
2022-09-15T12:04:08.437Z,99661.06
2022-09-15T12:06:56.119Z,99671.06
2022-09-15T12:09:22.779Z,99661.66
2022-09-15T12:11:53.457Z,99664.59
2022-09-15T12:14:38.751Z,99668.44
2022-09-15T12:17:06.856Z,99664.06
2022-09-15T12:19:33.085Z,99671.03
2022-09-15T12:22:14.300Z,99663.19
2022-09-15T12:25:03.842Z,99659.59
2022-09-15T12:27:30.745Z,99659.13
2022-09-15T12:30:00.905Z,99663.78
2022-09-15T12:32:31.678Z,99663.03
2022-09-15T12:35:16.086Z,99670.06
2022-09-15T12:37:46.404Z,99660.97
2022-09-15T12:40:37.427Z,99666.84
2022-09-15T12:43:18.521Z,99657.28
2022-09-15T12:45:56.403Z,99666.69
2022-09-15T12:48:26.867Z,99655.19
2022-09-15T12:50:56.743Z,99664.81
2022-09-15T12:53:26.445Z,99661.47
2022-09-15T12:56:22.134Z,99659.66
2022-09-15T12:58:49.521Z,99656.97
2022-09-15T13:01:31.058Z,99649.94
2022-09-15T13:03:58.283Z,99651.81
2022-09-15T13:06:32.929Z,99655.25
2022-09-15T13:09:01.929Z,99642.72
2022-09-15T13:11:31.340Z,99652.38
2022-09-15T13:14:03.706Z,99649.91
2022-09-15T13:16:42.268Z,99643.53
2022-09-15T13:19:39.749Z,99661.63
2022-09-15T13:22:11.934Z,99667.41
2022-09-15T13:25:14.329Z,99664.69
2022-09-15T13:27:43.763Z,99682.03
2022-09-15T13:30:39.270Z,99673.81
2022-09-15T13:33:05.526Z,99676.59
2022-09-15T13:35:50.490Z,99677.63
2022-09-15T13:38:37.902Z,99674.91
2022-09-15T13:41:32.297Z,99678.19
2022-09-15T13:44:09.687Z,99676.16
2022-09-15T13:47:04.891Z,99675.78
2022-09-15T13:49:31.146Z,99677.19
2022-09-15T13:52:03.009Z,99672.38
2022-09-15T13:54:29.367Z,99674.63
2022-09-15T13:56:59.995Z,99674.66
2022-09-15T13:59:32.255Z,99668.72
2022-09-15T14:02:00.267Z,99674.66
2022-09-15T14:04:30.703Z,99667.41
2022-09-15T14:07:01.259Z,99666.41
2022-09-15T14:09:32.603Z,99672.22
2022-09-15T14:12:07.555Z,99673.00
2022-09-15T14:14:55.137Z,99671.13
2022-09-15T14:17:24.286Z,99667.56
2022-09-15T14:19:56.012Z,99666.41
2022-09-15T14:22:32.854Z,99670.13
2022-09-15T14:25:04.178Z,99665.09
2022-09-15T14:27:34.973Z,99666.81
2022-09-15T14:30:04.067Z,99669.69
2022-09-15T14:32:34.099Z,99661.97
2022-09-15T14:35:05.870Z,99656.22
2022-09-15T14:37:32.693Z,99662.91
2022-09-15T14:40:00.695Z,99654.25
2022-09-15T14:42:30.059Z,99661.19
2022-09-15T14:48:05.803Z,99667.97
2022-09-15T14:50:33.444Z,99666.03
2022-09-15T14:53:06.882Z,99669.78
2022-09-15T14:55:48.052Z,99675.44
2022-09-15T14:58:23.466Z,99682.06
2022-09-15T15:00:52.967Z,99681.63
2022-09-15T15:03:47.971Z,99689.31
2022-09-15T15:06:34.853Z,99687.00
2022-09-15T15:09:16.132Z,99681.47
2022-09-15T15:11:42.698Z,99681.19
2022-09-15T15:14:11.388Z,99685.34
2022-09-15T15:16:50.379Z,99683.31
2022-09-15T15:19:32.961Z,99682.97
2022-09-15T15:22:28.794Z,99678.91
2022-09-15T15:24:55.423Z,99689.91
2022-09-15T15:27:34.625Z,99686.56
2022-09-15T15:30:22.954Z,99684.63
2022-09-15T15:32:49.404Z,99679.59
2022-09-15T15:35:17.713Z,99679.34
2022-09-15T15:37:44.124Z,99680.09
2022-09-15T15:40:19.869Z,99680.19
2022-09-15T15:42:59.262Z,99684.22
2022-09-15T15:45:29.344Z,99681.34
2022-09-15T15:47:55.895Z,99682.09
2022-09-15T15:50:25.165Z,99687.31
2022-09-15T15:52:52.309Z,99680.84
2022-09-15T15:55:24.368Z,99684.31
2022-09-15T15:57:53.302Z,99686.97
2022-09-15T16:00:23.995Z,99676.56
2022-09-15T16:02:53.752Z,99683.78
2022-09-15T16:05:23.561Z,99675.66
2022-09-15T16:07:51.608Z,99684.41
2022-09-15T16:10:21.197Z,99683.53
2022-09-15T16:12:47.643Z,99678.94
2022-09-15T16:15:17.444Z,99682.72
2022-09-15T16:17:46.862Z,99686.44
2022-09-15T16:20:14.094Z,99683.19
2022-09-15T16:22:40.379Z,99682.59
2022-09-15T16:25:29.656Z,99684.94
2022-09-15T16:27:55.942Z,99685.41
2022-09-15T16:30:22.230Z,99684.69
2022-09-15T16:32:48.500Z,99695.56
2022-09-15T16:35:26.341Z,99685.59
2022-09-15T16:37:52.623Z,99697.06
2022-09-15T16:40:19.011Z,99704.28
2022-09-15T16:42:47.367Z,99706.94
2022-09-15T16:45:40.946Z,99709.19
2022-09-15T16:48:08.497Z,99713.44
2022-09-15T16:50:35.509Z,99711.91
2022-09-15T16:53:01.980Z,99724.59
2022-09-15T16:55:45.225Z,99714.03
2022-09-15T16:58:12.932Z,99715.97
2022-09-15T17:00:39.732Z,99715.50
2022-09-15T17:03:07.539Z,99725.81
2022-09-15T17:05:33.773Z,99730.31
2022-09-15T17:08:00.102Z,99720.25
2022-09-15T17:10:26.457Z,99734.03
2022-09-15T17:12:53.320Z,99730.31
2022-09-15T17:15:21.740Z,99741.84
2022-09-15T17:17:48.496Z,99735.69
2022-09-15T17:20:15.344Z,99735.34
2022-09-15T17:22:41.814Z,99741.63
2022-09-15T17:25:35.540Z,99750.75
2022-09-15T17:28:01.961Z,99749.97
2022-09-15T17:30:31.124Z,99757.44
2022-09-15T17:33:14.376Z,99754.59
2022-09-15T17:35:40.956Z,99750.53
2022-09-15T17:38:07.617Z,99753.72
2022-09-15T17:40:35.639Z,99753.13
2022-09-15T17:43:02.758Z,99747.34
2022-09-15T17:45:36.231Z,99754.97
2022-09-15T17:48:03.983Z,99744.00
2022-09-15T17:50:32.585Z,99747.19
2022-09-15T17:52:59.175Z,99743.41
2022-09-15T17:55:31.075Z,99752.34
2022-09-15T17:57:59.562Z,99742.53
2022-09-15T18:00:33.091Z,99746.41
2022-09-15T18:03:02.355Z,99745.34
2022-09-15T18:05:31.570Z,99747.31
2022-09-15T18:07:59.962Z,99740.69
2022-09-15T18:10:26.939Z,99754.13
2022-09-15T18:12:55.643Z,99751.81
2022-09-15T18:15:25.858Z,99755.72
2022-09-15T18:17:54.644Z,99763.47
2022-09-15T18:20:24.175Z,99759.13
2022-09-15T18:22:51.116Z,99762.53
2022-09-15T18:25:23.151Z,99761.84
2022-09-15T18:27:49.565Z,99770.03
2022-09-15T18:30:16.631Z,99774.16
2022-09-15T18:32:43.567Z,99776.88
2022-09-15T18:35:13.272Z,99779.56
2022-09-15T18:37:43.922Z,99781.41
2022-09-15T18:40:12.734Z,99792.13
2022-09-15T18:42:39.978Z,99796.22
2022-09-15T18:45:09.043Z,99792.16
2022-09-15T18:47:35.939Z,99786.56
2022-09-15T18:50:03.469Z,99791.34
2022-09-15T18:52:29.751Z,99788.69
2022-09-15T18:54:56.037Z,99791.06
2022-09-15T18:57:22.736Z,99794.50
2022-09-15T18:59:49.475Z,99794.06
2022-09-15T19:02:15.947Z,99788.72
2022-09-15T19:04:42.819Z,99789.53
2022-09-15T19:07:10.260Z,99787.59
2022-09-15T19:09:36.593Z,99790.66
2022-09-15T19:12:04.403Z,99789.69
2022-09-15T19:14:31.394Z,99792.88
2022-09-15T19:16:58.599Z,99794.47
2022-09-15T19:19:25.149Z,99795.75
2022-09-15T19:21:51.520Z,99791.50
2022-09-15T19:24:17.903Z,99792.63
2022-09-15T19:26:44.772Z,99789.88
2022-09-15T19:29:11.063Z,99794.66
2022-09-15T19:31:41.707Z,99797.88
2022-09-15T19:34:08.380Z,99800.28
2022-09-15T19:36:34.771Z,99800.22
2022-09-15T19:39:01.054Z,99804.06
2022-09-15T19:41:27.354Z,99796.81
2022-09-15T19:43:53.822Z,99796.88
2022-09-15T19:46:23.087Z,99801.22
2022-09-15T19:48:51.066Z,99803.00
2022-09-15T19:51:18.280Z,99807.25
2022-09-15T19:53:45.335Z,99811.19
2022-09-15T19:56:16.955Z,99814.88
2022-09-15T19:58:44.355Z,99814.97
2022-09-15T20:01:11.013Z,99815.94
2022-09-15T20:03:37.411Z,99814.19
2022-09-15T20:06:08.354Z,99812.91
2022-09-15T20:08:36.485Z,99816.31
2022-09-15T20:11:07.685Z,99816.31
2022-09-15T20:13:34.624Z,99824.69
2022-09-15T20:16:02.539Z,99827.88
2022-09-15T20:18:29.864Z,99822.06
2022-09-15T20:20:56.598Z,99824.13
2022-09-15T20:23:22.920Z,99824.31
2022-09-15T20:26:00.837Z,99828.16
2022-09-15T20:28:27.654Z,99830.22
2022-09-15T20:31:06.271Z,99830.97
2022-09-15T20:33:34.888Z,99830.06
2022-09-15T20:36:09.775Z,99834.63
2022-09-15T20:38:36.545Z,99839.97
2022-09-15T20:41:04.103Z,99832.22
2022-09-15T20:43:30.532Z,99835.88
2022-09-15T20:45:58.539Z,99832.97
2022-09-15T20:48:26.146Z,99841.63
2022-09-15T20:51:00.194Z,99837.66
2022-09-15T20:53:26.538Z,99837.53
2022-09-15T20:55:52.836Z,99843.66
2022-09-15T20:58:19.355Z,99829.13
2022-09-15T21:00:45.655Z,99844.25
2022-09-15T21:03:11.962Z,99842.97
2022-09-15T21:05:38.261Z,99846.53
2022-09-15T21:08:04.597Z,99848.78
2022-09-15T21:10:30.915Z,99845.59
2022-09-15T21:12:57.200Z,99849.75
2022-09-15T21:15:23.541Z,99845.47
2022-09-15T21:17:49.844Z,99847.22
2022-09-15T21:20:16.262Z,99845.50
2022-09-15T21:22:42.573Z,99844.06
2022-09-15T21:25:08.994Z,99848.53
2022-09-15T21:27:35.296Z,99844.69
2022-09-15T21:30:01.588Z,99847.75
2022-09-15T21:32:27.900Z,99840.53
2022-09-15T21:34:54.203Z,99840.72
2022-09-15T21:37:20.519Z,99840.22
2022-09-15T21:39:46.853Z,99850.75
2022-09-15T21:42:13.219Z,99839.72
2022-09-15T21:44:39.512Z,99845.69
2022-09-15T21:47:05.827Z,99847.41
2022-09-15T21:49:32.158Z,99853.03
2022-09-15T21:51:58.434Z,99846.47
2022-09-15T21:54:24.770Z,99858.97
2022-09-15T21:56:51.075Z,99861.00
2022-09-15T21:59:17.387Z,99860.72
2022-09-15T22:01:43.710Z,99857.97
2022-09-15T22:04:10.075Z,99861.50
2022-09-15T22:06:38.879Z,99857.03
2022-09-15T22:09:08.338Z,99852.06
2022-09-15T22:11:35.471Z,99850.44
2022-09-15T22:14:04.014Z,99854.13
2022-09-15T22:16:30.441Z,99859.56
2022-09-15T22:18:56.774Z,99860.03
2022-09-15T22:21:28.638Z,99852.69
2022-09-15T22:23:57.282Z,99853.19
2022-09-15T22:26:26.746Z,99868.19
2022-09-15T22:28:53.817Z,99860.34
2022-09-15T22:31:21.838Z,99865.28
2022-09-15T22:33:48.483Z,99858.53
2022-09-15T22:36:22.219Z,99868.16
2022-09-15T22:38:51.971Z,99863.34
2022-09-15T22:41:20.192Z,99868.13
2022-09-15T22:43:48.866Z,99870.84
2022-09-15T22:46:17.322Z,99863.31
2022-09-15T22:48:43.770Z,99870.84
2022-09-15T22:51:10.719Z,99871.63
2022-09-15T22:53:37.013Z,99864.25
2022-09-15T22:56:14.968Z,99869.69
2022-09-15T22:58:43.522Z,99868.91
2022-09-15T23:01:13.164Z,99866.31
2022-09-15T23:03:39.845Z,99871.75
2022-09-15T23:06:07.316Z,99870.78
2022-09-15T23:08:34.841Z,99873.63
2022-09-15T23:11:03.327Z,99872.22
2022-09-15T23:13:29.680Z,99866.28
2022-09-15T23:15:56.013Z,99866.50
2022-09-15T23:18:22.349Z,99870.69
2022-09-15T23:20:54.779Z,99867.47
2022-09-15T23:23:21.097Z,99862.56
2022-09-15T23:25:47.382Z,99860.78
2022-09-15T23:28:13.673Z,99861.78
2022-09-15T23:30:39.971Z,99850.41
2022-09-15T23:33:06.284Z,99855.22
2022-09-15T23:35:32.599Z,99853.16
2022-09-15T23:37:59.325Z,99856.00
2022-09-15T23:40:25.659Z,99854.06
2022-09-15T23:42:51.965Z,99855.50
2022-09-15T23:45:18.324Z,99856.31
2022-09-15T23:47:44.617Z,99853.28
2022-09-15T23:50:10.898Z,99850.25
2022-09-15T23:52:37.225Z,99851.38
2022-09-15T23:55:04.015Z,99856.31
2022-09-15T23:57:30.315Z,99856.13
2022-09-15T23:59:56.619Z,99849.22
